sensor_id;sensor_type;location;lat;lon;timestamp;pressure;altitude;pressure_sealevel;temperature;humidity
4767;BME280;2397;53.576;9.746;2022-09-12T00:00:21;101776.28;;;11.25;100.00
4767;BME280;2397;53.576;9.746;2022-09-12T00:02:52;101784.50;;;11.40;100.00
4767;BME280;2397;53.576;9.746;2022-09-12T00:05:19;101778.03;;;11.24;100.00
4767;BME280;2397;53.576;9.746;2022-09-12T00:07:45;101770.91;;;11.17;100.00
4767;BME280;2397;53.576;9.746;2022-09-12T00:10:12;101775.44;;;11.56;100.00
4767;BME280;2397;53.576;9.746;2022-09-12T00:12:38;101774.16;;;12.09;100.00
4767;BME280;2397;53.576;9.746;2022-09-12T00:15:05;101775.19;;;11.49;100.00
4767;BME280;2397;53.576;9.746;2022-09-12T00:17:36;101766.53;;;11.15;100.00
4767;BME280;2397;53.576;9.746;2022-09-12T00:20:04;101770.16;;;11.21;100.00
4767;BME280;2397;53.576;9.746;2022-09-12T00:22:32;101769.34;;;11.22;100.00
4767;BME280;2397;53.576;9.746;2022-09-12T00:24:58;101771.63;;;11.77;100.00
4767;BME280;2397;53.576;9.746;2022-09-12T00:27:26;101769.69;;;11.68;100.00
4767;BME280;2397;53.576;9.746;2022-09-12T00:29:53;101770.28;;;11.26;100.00
4767;BME280;2397;53.576;9.746;2022-09-12T00:32:20;101765.34;;;11.03;100.00
4767;BME280;2397;53.576;9.746;2022-09-12T00:34:46;101767.38;;;10.83;100.00
4767;BME280;2397;53.576;9.746;2022-09-12T00:37:13;101767.16;;;10.76;100.00
4767;BME280;2397;53.576;9.746;2022-09-12T00:39:39;101756.22;;;10.86;100.00
4767;BME280;2397;53.576;9.746;2022-09-12T00:42:06;101754.22;;;11.06;100.00
4767;BME280;2397;53.576;9.746;2022-09-12T00:46:59;101758.28;;;10.98;100.00
4767;BME280;2397;53.576;9.746;2022-09-12T00:49:33;101752.97;;;10.93;100.00
4767;BME280;2397;53.576;9.746;2022-09-12T00:52:09;101753.28;;;10.74;100.00
4767;BME280;2397;53.576;9.746;2022-09-12T00:54:45;101751.63;;;10.76;100.00
4767;BME280;2397;53.576;9.746;2022-09-12T00:57:13;101756.31;;;10.89;100.00
4767;BME280;2397;53.576;9.746;2022-09-12T01:00:07;101749.84;;;10.75;100.00
4767;BME280;2397;53.576;9.746;2022-09-12T01:02:39;101750.25;;;10.58;100.00
4767;BME280;2397;53.576;9.746;2022-09-12T01:05:07;101744.94;;;10.53;100.00
4767;BME280;2397;53.576;9.746;2022-09-12T01:07:37;101750.56;;;10.69;100.00
4767;BME280;2397;53.576;9.746;2022-09-12T01:10:07;101744.50;;;10.99;100.00
4767;BME280;2397;53.576;9.746;2022-09-12T01:12:37;101745.16;;;11.23;100.00
4767;BME280;2397;53.576;9.746;2022-09-12T01:15:05;101742.66;;;10.95;100.00
4767;BME280;2397;53.576;9.746;2022-09-12T01:20:31;101744.94;;;10.53;100.00
4767;BME280;2397;53.576;9.746;2022-09-12T01:23:17;101743.84;;;11.06;100.00
4767;BME280;2397;53.576;9.746;2022-09-12T01:29:09;101740.72;;;10.87;100.00
4767;BME280;2397;53.576;9.746;2022-09-12T01:31:52;101738.78;;;10.50;100.00
4767;BME280;2397;53.576;9.746;2022-09-12T01:34:25;101741.09;;;10.41;100.00
4767;BME280;2397;53.576;9.746;2022-09-12T01:39:42;101729.25;;;10.49;100.00
4767;BME280;2397;53.576;9.746;2022-09-12T01:42:33;101731.72;;;10.44;100.00
4767;BME280;2397;53.576;9.746;2022-09-12T01:47:49;101726.59;;;10.46;100.00
4767;BME280;2397;53.576;9.746;2022-09-12T01:50:24;101719.25;;;10.61;100.00
4767;BME280;2397;53.576;9.746;2022-09-12T01:52:56;101717.56;;;10.62;100.00
4767;BME280;2397;53.576;9.746;2022-09-12T01:55:31;101715.72;;;10.58;100.00
4767;BME280;2397;53.576;9.746;2022-09-12T01:58:16;101721.16;;;10.67;100.00
4767;BME280;2397;53.576;9.746;2022-09-12T02:00:47;101703.03;;;10.67;100.00
4767;BME280;2397;53.576;9.746;2022-09-12T02:03:26;101709.97;;;10.68;100.00
4767;BME280;2397;53.576;9.746;2022-09-12T02:06:00;101703.50;;;10.53;100.00
4767;BME280;2397;53.576;9.746;2022-09-12T02:08:48;101703.13;;;10.40;100.00
4767;BME280;2397;53.576;9.746;2022-09-12T02:11:17;101697.81;;;10.35;100.00
4767;BME280;2397;53.576;9.746;2022-09-12T02:18:56;101691.38;;;10.24;100.00
4767;BME280;2397;53.576;9.746;2022-09-12T02:21:24;101681.69;;;10.16;100.00
4767;BME280;2397;53.576;9.746;2022-09-12T02:23:58;101681.75;;;10.19;100.00
4767;BME280;2397;53.576;9.746;2022-09-12T02:26:36;101691.34;;;10.51;100.00
4767;BME280;2397;53.576;9.746;2022-09-12T02:29:05;101686.03;;;10.46;100.00
4767;BME280;2397;53.576;9.746;2022-09-12T02:34:21;101689.03;;;10.31;100.00
4767;BME280;2397;53.576;9.746;2022-09-12T02:37:21;101685.50;;;10.88;100.00
4767;BME280;2397;53.576;9.746;2022-09-12T02:39:54;101688.75;;;10.81;100.00
4767;BME280;2397;53.576;9.746;2022-09-12T02:42:22;101696.56;;;10.83;100.00
4767;BME280;2397;53.576;9.746;2022-09-12T02:44:50;101694.44;;;10.39;100.00
4767;BME280;2397;53.576;9.746;2022-09-12T02:47:23;101689.84;;;10.01;100.00
4767;BME280;2397;53.576;9.746;2022-09-12T02:49:52;101689.56;;;9.92;100.00
4767;BME280;2397;53.576;9.746;2022-09-12T02:52:19;101687.53;;;10.68;100.00
4767;BME280;2397;53.576;9.746;2022-09-12T02:54:46;101694.66;;;10.45;100.00
4767;BME280;2397;53.576;9.746;2022-09-12T02:57:17;101693.63;;;10.11;100.00
4767;BME280;2397;53.576;9.746;2022-09-12T02:59:49;101692.19;;;10.50;100.00
4767;BME280;2397;53.576;9.746;2022-09-12T03:02:31;101692.78;;;11.02;100.00
4767;BME280;2397;53.576;9.746;2022-09-12T03:10:27;101704.50;;;10.57;100.00
4767;BME280;2397;53.576;9.746;2022-09-12T03:16:00;101699.41;;;10.33;100.00
4767;BME280;2397;53.576;9.746;2022-09-12T03:24:29;101692.63;;;10.35;100.00
4767;BME280;2397;53.576;9.746;2022-09-12T03:29:36;101686.59;;;10.36;100.00
4767;BME280;2397;53.576;9.746;2022-09-12T03:32:03;101683.78;;;10.57;100.00
4767;BME280;2397;53.576;9.746;2022-09-12T03:34:30;101684.22;;;10.42;100.00
4767;BME280;2397;53.576;9.746;2022-09-12T03:36:56;101693.28;;;10.29;100.00
4767;BME280;2397;53.576;9.746;2022-09-12T03:39:23;101686.38;;;10.30;100.00
4767;BME280;2397;53.576;9.746;2022-09-12T03:41:52;101692.28;;;10.26;100.00
4767;BME280;2397;53.576;9.746;2022-09-12T03:44:19;101693.88;;;10.20;100.00
4767;BME280;2397;53.576;9.746;2022-09-12T03:46:46;101697.56;;;10.29;100.00
4767;BME280;2397;53.576;9.746;2022-09-12T03:49:12;101701.09;;;10.31;100.00
4767;BME280;2397;53.576;9.746;2022-09-12T03:51:39;101693.16;;;10.25;100.00
4767;BME280;2397;53.576;9.746;2022-09-12T03:54:05;101684.69;;;10.30;100.00
4767;BME280;2397;53.576;9.746;2022-09-12T03:56:32;101684.00;;;10.36;100.00
4767;BME280;2397;53.576;9.746;2022-09-12T03:58:58;101689.75;;;10.27;100.00
4767;BME280;2397;53.576;9.746;2022-09-12T04:01:25;101681.69;;;10.16;100.00
4767;BME280;2397;53.576;9.746;2022-09-12T04:03:51;101677.19;;;10.11;100.00
4767;BME280;2397;53.576;9.746;2022-09-12T04:06:20;101682.22;;;10.06;100.00
4767;BME280;2397;53.576;9.746;2022-09-12T04:08:48;101679.44;;;10.29;100.00
4767;BME280;2397;53.576;9.746;2022-09-12T04:11:16;101682.88;;;10.57;100.00
4767;BME280;2397;53.576;9.746;2022-09-12T04:13:44;101685.69;;;10.34;100.00
4767;BME280;2397;53.576;9.746;2022-09-12T04:16:12;101680.53;;;10.07;100.00
4767;BME280;2397;53.576;9.746;2022-09-12T04:18:39;101675.41;;;10.08;100.00
4767;BME280;2397;53.576;9.746;2022-09-12T04:21:14;101668.59;;;10.12;100.00
4767;BME280;2397;53.576;9.746;2022-09-12T04:23:41;101668.56;;;10.39;100.00
4767;BME280;2397;53.576;9.746;2022-09-12T04:26:09;101672.06;;;10.12;100.00
4767;BME280;2397;53.576;9.746;2022-09-12T04:28:36;101675.09;;;9.99;100.00
4767;BME280;2397;53.576;9.746;2022-09-12T04:31:15;101679.28;;;9.94;100.00
4767;BME280;2397;53.576;9.746;2022-09-12T04:33:53;101675.66;;;9.89;100.00
4767;BME280;2397;53.576;9.746;2022-09-12T04:36:20;101671.38;;;9.89;100.00
4767;BME280;2397;53.576;9.746;2022-09-12T04:38:48;101677.09;;;9.79;100.00
4767;BME280;2397;53.576;9.746;2022-09-12T04:43:46;101680.44;;;10.32;100.00
4767;BME280;2397;53.576;9.746;2022-09-12T04:46:15;101677.44;;;10.47;100.00
4767;BME280;2397;53.576;9.746;2022-09-12T04:48:45;101679.22;;;9.92;100.00
4767;BME280;2397;53.576;9.746;2022-09-12T04:51:14;101683.81;;;9.74;100.00
4767;BME280;2397;53.576;9.746;2022-09-12T04:53:42;101680.69;;;9.84;100.00
4767;BME280;2397;53.576;9.746;2022-09-12T04:56:10;101674.78;;;9.88;100.00
4767;BME280;2397;53.576;9.746;2022-09-12T04:58:36;101689.13;;;9.78;100.00
4767;BME280;2397;53.576;9.746;2022-09-12T05:01:15;101688.28;;;9.79;100.00
4767;BME280;2397;53.576;9.746;2022-09-12T05:03:43;101678.78;;;9.78;100.00
4767;BME280;2397;53.576;9.746;2022-09-12T05:06:16;101676.50;;;9.88;100.00
4767;BME280;2397;53.576;9.746;2022-09-12T05:08:43;101673.00;;;9.87;100.00
4767;BME280;2397;53.576;9.746;2022-09-12T05:11:12;101676.13;;;10.33;100.00
4767;BME280;2397;53.576;9.746;2022-09-12T05:13:39;101675.03;;;10.53;100.00
4767;BME280;2397;53.576;9.746;2022-09-12T05:16:06;101672.19;;;10.44;100.00
4767;BME280;2397;53.576;9.746;2022-09-12T05:18:34;101674.13;;;10.51;100.00
4767;BME280;2397;53.576;9.746;2022-09-12T05:21:04;101672.09;;;10.41;100.00
4767;BME280;2397;53.576;9.746;2022-09-12T05:23:31;101676.50;;;10.44;100.00
4767;BME280;2397;53.576;9.746;2022-09-12T05:25:59;101672.28;;;10.47;100.00
4767;BME280;2397;53.576;9.746;2022-09-12T05:28:31;101671.06;;;10.36;100.00
4767;BME280;2397;53.576;9.746;2022-09-12T05:31:06;101685.88;;;10.40;100.00
4767;BME280;2397;53.576;9.746;2022-09-12T05:33:35;101686.06;;;10.48;100.00
4767;BME280;2397;53.576;9.746;2022-09-12T05:36:03;101681.13;;;10.27;100.00
4767;BME280;2397;53.576;9.746;2022-09-12T05:38:30;101683.25;;;10.11;100.00
4767;BME280;2397;53.576;9.746;2022-09-12T05:41:08;101674.56;;;10.09;100.00
4767;BME280;2397;53.576;9.746;2022-09-12T05:43:42;101670.31;;;10.11;100.00
4767;BME280;2397;53.576;9.746;2022-09-12T05:46:11;101684.19;;;10.13;100.00
4767;BME280;2397;53.576;9.746;2022-09-12T05:48:40;101677.16;;;10.09;100.00
4767;BME280;2397;53.576;9.746;2022-09-12T05:51:09;101680.81;;;10.16;100.00
4767;BME280;2397;53.576;9.746;2022-09-12T05:53:37;101685.44;;;10.26;100.00
4767;BME280;2397;53.576;9.746;2022-09-12T05:56:06;101688.91;;;10.87;100.00
4767;BME280;2397;53.576;9.746;2022-09-12T05:58:35;101673.44;;;11.22;100.00
4767;BME280;2397;53.576;9.746;2022-09-12T06:01:09;101692.13;;;11.44;100.00
4767;BME280;2397;53.576;9.746;2022-09-12T06:03:45;101688.00;;;11.52;100.00
4767;BME280;2397;53.576;9.746;2022-09-12T06:06:13;101689.13;;;11.62;100.00
4767;BME280;2397;53.576;9.746;2022-09-12T06:08:42;101683.28;;;11.36;100.00
4767;BME280;2397;53.576;9.746;2022-09-12T06:11:11;101688.53;;;11.05;100.00
4767;BME280;2397;53.576;9.746;2022-09-12T06:13:39;101689.09;;;10.94;100.00
4767;BME280;2397;53.576;9.746;2022-09-12T06:16:14;101694.44;;;11.00;100.00
4767;BME280;2397;53.576;9.746;2022-09-12T06:18:49;101693.53;;;11.31;100.00
4767;BME280;2397;53.576;9.746;2022-09-12T06:21:17;101685.09;;;11.38;100.00
4767;BME280;2397;53.576;9.746;2022-09-12T06:23:43;101690.09;;;11.32;100.00
4767;BME280;2397;53.576;9.746;2022-09-12T06:26:14;101688.34;;;11.66;100.00
4767;BME280;2397;53.576;9.746;2022-09-12T06:28:43;101687.72;;;11.76;100.00
4767;BME280;2397;53.576;9.746;2022-09-12T06:31:12;101683.44;;;11.77;100.00
4767;BME280;2397;53.576;9.746;2022-09-12T06:33:42;101676.97;;;11.96;100.00
4767;BME280;2397;53.576;9.746;2022-09-12T06:36:13;101677.13;;;12.02;100.00
4767;BME280;2397;53.576;9.746;2022-09-12T06:38:39;101667.44;;;12.35;100.00
4767;BME280;2397;53.576;9.746;2022-09-12T06:41:09;101666.22;;;12.60;100.00
4767;BME280;2397;53.576;9.746;2022-09-12T06:43:37;101671.00;;;12.82;100.00
4767;BME280;2397;53.576;9.746;2022-09-12T06:46:04;101675.59;;;12.97;100.00
4767;BME280;2397;53.576;9.746;2022-09-12T06:48:30;101674.97;;;13.11;100.00
4767;BME280;2397;53.576;9.746;2022-09-12T06:51:04;101668.25;;;13.22;100.00
4767;BME280;2397;53.576;9.746;2022-09-12T06:53:33;101669.22;;;13.29;100.00
4767;BME280;2397;53.576;9.746;2022-09-12T06:56:04;101662.56;;;13.43;100.00
4767;BME280;2397;53.576;9.746;2022-09-12T06:58:33;101667.03;;;13.52;100.00
4767;BME280;2397;53.576;9.746;2022-09-12T07:01:05;101663.69;;;13.59;100.00
4767;BME280;2397;53.576;9.746;2022-09-12T07:03:32;101663.72;;;13.62;100.00
4767;BME280;2397;53.576;9.746;2022-09-12T07:06:04;101671.63;;;13.68;100.00
4767;BME280;2397;53.576;9.746;2022-09-12T07:08:33;101665.66;;;13.74;100.00
4767;BME280;2397;53.576;9.746;2022-09-12T07:11:09;101664.03;;;13.84;100.00
4767;BME280;2397;53.576;9.746;2022-09-12T07:13:37;101662.41;;;13.89;100.00
4767;BME280;2397;53.576;9.746;2022-09-12T07:16:04;101662.56;;;14.01;100.00
4767;BME280;2397;53.576;9.746;2022-09-12T07:18:32;101657.44;;;14.09;100.00
4767;BME280;2397;53.576;9.746;2022-09-12T07:21:00;101651.66;;;14.29;100.00
4767;BME280;2397;53.576;9.746;2022-09-12T07:23:28;101662.34;;;14.52;100.00
4767;BME280;2397;53.576;9.746;2022-09-12T07:25:56;101653.84;;;14.65;100.00
4767;BME280;2397;53.576;9.746;2022-09-12T07:28:24;101654.22;;;15.01;100.00
4767;BME280;2397;53.576;9.746;2022-09-12T07:30:51;101653.88;;;15.63;100.00
4767;BME280;2397;53.576;9.746;2022-09-12T07:33:20;101649.69;;;15.83;100.00
4767;BME280;2397;53.576;9.746;2022-09-12T07:35:47;101640.31;;;16.19;100.00
4767;BME280;2397;53.576;9.746;2022-09-12T07:38:15;101650.06;;;16.64;100.00
4767;BME280;2397;53.576;9.746;2022-09-12T07:40:42;101644.94;;;17.45;100.00
4767;BME280;2397;53.576;9.746;2022-09-12T07:43:08;101640.47;;;18.10;100.00
4767;BME280;2397;53.576;9.746;2022-09-12T07:45:35;101638.19;;;19.11;92.65
4767;BME280;2397;53.576;9.746;2022-09-12T07:48:02;101645.66;;;19.62;90.19
4767;BME280;2397;53.576;9.746;2022-09-12T07:50:29;101641.53;;;19.31;86.74
4767;BME280;2397;53.576;9.746;2022-09-12T07:52:55;101643.59;;;18.92;90.36
4767;BME280;2397;53.576;9.746;2022-09-12T07:55:21;101637.13;;;20.22;81.01
4767;BME280;2397;53.576;9.746;2022-09-12T07:57:49;101642.81;;;19.83;84.15
4767;BME280;2397;53.576;9.746;2022-09-12T08:00:16;101651.25;;;20.15;80.25
4767;BME280;2397;53.576;9.746;2022-09-12T08:02:43;101651.06;;;20.94;78.94
4767;BME280;2397;53.576;9.746;2022-09-12T08:05:10;101647.56;;;21.51;71.12
4767;BME280;2397;53.576;9.746;2022-09-12T08:07:36;101659.75;;;19.52;79.29
4767;BME280;2397;53.576;9.746;2022-09-12T08:10:03;101657.75;;;20.53;76.07
4767;BME280;2397;53.576;9.746;2022-09-12T08:12:30;101655.34;;;20.38;73.54
4767;BME280;2397;53.576;9.746;2022-09-12T08:14:57;101651.78;;;20.42;73.06
4767;BME280;2397;53.576;9.746;2022-09-12T08:17:23;101650.66;;;19.88;74.79
4767;BME280;2397;53.576;9.746;2022-09-12T08:19:50;101658.94;;;19.42;79.67
4767;BME280;2397;53.576;9.746;2022-09-12T08:22:16;101661.03;;;19.00;81.22
4767;BME280;2397;53.576;9.746;2022-09-12T08:24:43;101656.50;;;19.23;81.62
4767;BME280;2397;53.576;9.746;2022-09-12T08:27:10;101664.69;;;18.68;82.98
4767;BME280;2397;53.576;9.746;2022-09-12T08:29:36;101660.50;;;18.30;85.48
4767;BME280;2397;53.576;9.746;2022-09-12T08:32:02;101658.88;;;17.96;91.82
4767;BME280;2397;53.576;9.746;2022-09-12T08:34:29;101655.41;;;17.68;97.26
4767;BME280;2397;53.576;9.746;2022-09-12T08:36:55;101645.81;;;17.54;95.55
4767;BME280;2397;53.576;9.746;2022-09-12T08:39:22;101645.81;;;17.34;99.06
4767;BME280;2397;53.576;9.746;2022-09-12T08:42:11;101647.56;;;17.20;99.71
4767;BME280;2397;53.576;9.746;2022-09-12T08:45:05;101644.09;;;17.38;100.00
4767;BME280;2397;53.576;9.746;2022-09-12T08:47:37;101645.81;;;17.24;100.00
4767;BME280;2397;53.576;9.746;2022-09-12T08:50:13;101637.97;;;17.42;100.00
4767;BME280;2397;53.576;9.746;2022-09-12T08:53:01;101631.84;;;17.54;99.84
4767;BME280;2397;53.576;9.746;2022-09-12T08:55:37;101631.88;;;17.35;100.00
4767;BME280;2397;53.576;9.746;2022-09-12T09:00:45;101630.09;;;17.48;100.00
4767;BME280;2397;53.576;9.746;2022-09-12T09:03:33;101631.81;;;17.74;99.39
4767;BME280;2397;53.576;9.746;2022-09-12T09:09:27;101631.84;;;17.55;100.00
4767;BME280;2397;53.576;9.746;2022-09-12T09:12:19;101637.97;;;17.53;99.46
4767;BME280;2397;53.576;9.746;2022-09-12T09:15:00;101636.22;;;17.58;100.00
4767;BME280;2397;53.576;9.746;2022-09-12T09:17:34;101629.19;;;17.93;100.00
4767;BME280;2397;53.576;9.746;2022-09-12T09:22:59;101620.47;;;17.78;98.88
4767;BME280;2397;53.576;9.746;2022-09-12T09:28:45;101609.06;;;18.04;93.25
4767;BME280;2397;53.576;9.746;2022-09-12T09:31:17;101609.00;;;18.15;96.39
4767;BME280;2397;53.576;9.746;2022-09-12T09:33:50;101605.50;;;18.20;89.10
4767;BME280;2397;53.576;9.746;2022-09-12T09:36:20;101614.22;;;18.29;86.49
4767;BME280;2397;53.576;9.746;2022-09-12T09:38:58;101612.44;;;18.34;82.63
4767;BME280;2397;53.576;9.746;2022-09-12T09:41:50;101609.88;;;18.20;81.78
4767;BME280;2397;53.576;9.746;2022-09-12T09:44:22;101603.78;;;18.16;81.96
4767;BME280;2397;53.576;9.746;2022-09-12T09:46:52;101601.13;;;18.19;83.58
4767;BME280;2397;53.576;9.746;2022-09-12T09:49:19;101606.38;;;18.22;82.38
4767;BME280;2397;53.576;9.746;2022-09-12T09:51:47;101605.44;;;18.36;80.00
4767;BME280;2397;53.576;9.746;2022-09-12T09:54:25;101609.81;;;18.32;85.01
4767;BME280;2397;53.576;9.746;2022-09-12T09:56:53;101607.16;;;18.46;79.96
4767;BME280;2397;53.576;9.746;2022-09-12T09:59:28;101598.34;;;18.53;76.50
4767;BME280;2397;53.576;9.746;2022-09-12T10:02:01;101602.75;;;18.50;77.24
4767;BME280;2397;53.576;9.746;2022-09-12T10:04:31;101602.72;;;18.53;75.92
4767;BME280;2397;53.576;9.746;2022-09-12T10:07:04;101597.50;;;18.50;74.30
4767;BME280;2397;53.576;9.746;2022-09-12T10:09:34;101603.59;;;18.50;73.62
4767;BME280;2397;53.576;9.746;2022-09-12T10:12:20;101600.94;;;18.61;73.15
4767;BME280;2397;53.576;9.746;2022-09-12T10:14:58;101598.16;;;18.86;72.89
4767;BME280;2397;53.576;9.746;2022-09-12T10:17:27;101601.75;;;18.68;76.16
4767;BME280;2397;53.576;9.746;2022-09-12T10:19:59;101605.19;;;18.79;76.07
4767;BME280;2397;53.576;9.746;2022-09-12T10:22:46;101601.59;;;18.97;73.76
4767;BME280;2397;53.576;9.746;2022-09-12T10:25:15;101599.03;;;18.85;74.99
4767;BME280;2397;53.576;9.746;2022-09-12T10:27:43;101597.16;;;19.01;75.26
4767;BME280;2397;53.576;9.746;2022-09-12T10:30:17;101591.78;;;19.21;73.46
4767;BME280;2397;53.576;9.746;2022-09-12T10:32:47;101596.91;;;19.33;71.97
4767;BME280;2397;53.576;9.746;2022-09-12T10:35:22;101597.03;;;19.21;68.86
4767;BME280;2397;53.576;9.746;2022-09-12T10:40:40;101588.16;;;19.33;68.43
4767;BME280;2397;53.576;9.746;2022-09-12T10:43:29;101589.91;;;19.35;73.39
4767;BME280;2397;53.576;9.746;2022-09-12T10:46:21;101582.88;;;19.37;69.32
4767;BME280;2397;53.576;9.746;2022-09-12T10:48:50;101574.88;;;19.48;70.69
4767;BME280;2397;53.576;9.746;2022-09-12T10:53:57;101578.47;;;19.41;71.73
4767;BME280;2397;53.576;9.746;2022-09-12T10:56:30;101580.03;;;19.59;71.67
4767;BME280;2397;53.576;9.746;2022-09-12T11:01:48;101573.94;;;19.55;70.37
4767;BME280;2397;53.576;9.746;2022-09-12T11:04:23;101567.03;;;19.45;70.50
4767;BME280;2397;53.576;9.746;2022-09-12T11:07:12;101556.44;;;19.56;70.47
4767;BME280;2397;53.576;9.746;2022-09-12T11:09:49;101554.50;;;19.70;72.92
4767;BME280;2397;53.576;9.746;2022-09-12T11:12:27;101557.72;;;19.95;75.74
4767;BME280;2397;53.576;9.746;2022-09-12T11:17:48;101564.53;;;20.10;73.50
4767;BME280;2397;53.576;9.746;2022-09-12T11:23:24;101555.66;;;20.21;72.49
4767;BME280;2397;53.576;9.746;2022-09-12T11:26:08;101554.28;;;19.92;70.89
4767;BME280;2397;53.576;9.746;2022-09-12T11:28:42;101556.63;;;20.12;72.02
4767;BME280;2397;53.576;9.746;2022-09-12T11:31:21;101552.28;;;20.11;70.88
4767;BME280;2397;53.576;9.746;2022-09-12T11:33:51;101552.28;;;20.12;70.09
4767;BME280;2397;53.576;9.746;2022-09-12T11:36:36;101546.06;;;20.18;69.39
4767;BME280;2397;53.576;9.746;2022-09-12T11:39:14;101542.97;;;19.85;71.80
4767;BME280;2397;53.576;9.746;2022-09-12T11:41:44;101541.03;;;19.99;69.97
4767;BME280;2397;53.576;9.746;2022-09-12T11:44:41;101541.91;;;20.03;68.76
4767;BME280;2397;53.576;9.746;2022-09-12T11:47:11;101534.75;;;20.11;67.51
4767;BME280;2397;53.576;9.746;2022-09-12T11:49:58;101534.69;;;20.16;66.93
4767;BME280;2397;53.576;9.746;2022-09-12T11:52:28;101531.03;;;20.28;67.85
4767;BME280;2397;53.576;9.746;2022-09-12T11:55:05;101531.97;;;20.22;67.43
4767;BME280;2397;53.576;9.746;2022-09-12T11:57:38;101533.53;;;20.35;70.06
4767;BME280;2397;53.576;9.746;2022-09-12T12:00:15;101531.66;;;20.45;68.68
4767;BME280;2397;53.576;9.746;2022-09-12T12:05:34;101524.53;;;20.53;70.63
4767;BME280;2397;53.576;9.746;2022-09-12T12:08:06;101529.63;;;20.63;69.23
4767;BME280;2397;53.576;9.746;2022-09-12T12:10:36;101531.00;;;20.87;66.72
4767;BME280;2397;53.576;9.746;2022-09-12T12:13:07;101532.81;;;20.26;68.68
4767;BME280;2397;53.576;9.746;2022-09-12T12:15:44;101534.97;;;20.58;68.13
4767;BME280;2397;53.576;9.746;2022-09-12T12:18:20;101533.41;;;20.45;68.85
4767;BME280;2397;53.576;9.746;2022-09-12T12:20:49;101536.72;;;20.56;67.01
4767;BME280;2397;53.576;9.746;2022-09-12T12:23:31;101529.84;;;20.49;65.29
4767;BME280;2397;53.576;9.746;2022-09-12T12:26:01;101525.66;;;20.35;72.03
4767;BME280;2397;53.576;9.746;2022-09-12T12:31:09;101518.75;;;20.87;63.99
4767;BME280;2397;53.576;9.746;2022-09-12T12:36:06;101510.06;;;21.76;63.03
4767;BME280;2397;53.576;9.746;2022-09-12T12:38:38;101508.78;;;21.03;63.63
4767;BME280;2397;53.576;9.746;2022-09-12T12:43:48;101503.53;;;21.52;64.74
4767;BME280;2397;53.576;9.746;2022-09-12T12:46:17;101503.63;;;21.89;62.34
4767;BME280;2397;53.576;9.746;2022-09-12T12:48:53;101496.00;;;21.30;64.55
4767;BME280;2397;53.576;9.746;2022-09-12T12:51:42;101496.09;;;21.26;63.57
4767;BME280;2397;53.576;9.746;2022-09-12T12:57:18;101498.81;;;21.21;63.99
4767;BME280;2397;53.576;9.746;2022-09-12T13:00:06;101495.91;;;21.36;65.15
4767;BME280;2397;53.576;9.746;2022-09-12T13:02:35;101487.31;;;21.27;63.74
4767;BME280;2397;53.576;9.746;2022-09-12T13:05:15;101486.00;;;21.51;63.33
4767;BME280;2397;53.576;9.746;2022-09-12T13:07:43;101480.34;;;21.24;63.76
4767;BME280;2397;53.576;9.746;2022-09-12T13:10:24;101475.44;;;21.49;63.21
4767;BME280;2397;53.576;9.746;2022-09-12T13:12:56;101462.91;;;21.17;68.42
4767;BME280;2397;53.576;9.746;2022-09-12T13:15:46;101467.50;;;21.52;63.63
4767;BME280;2397;53.576;9.746;2022-09-12T13:18:24;101462.88;;;21.65;62.59
4767;BME280;2397;53.576;9.746;2022-09-12T13:20:59;101454.94;;;21.67;63.57
4767;BME280;2397;53.576;9.746;2022-09-12T13:23:31;101451.34;;;21.71;62.50
4767;BME280;2397;53.576;9.746;2022-09-12T13:25:58;101453.00;;;21.31;64.83
4767;BME280;2397;53.576;9.746;2022-09-12T13:28:27;101448.56;;;21.35;63.05
4767;BME280;2397;53.576;9.746;2022-09-12T13:31:04;101440.16;;;21.16;65.10
4767;BME280;2397;53.576;9.746;2022-09-12T13:33:36;101438.13;;;20.83;68.01
4767;BME280;2397;53.576;9.746;2022-09-12T13:44:02;101420.56;;;21.29;65.32
4767;BME280;2397;53.576;9.746;2022-09-12T13:46:34;101420.34;;;21.40;65.76
4767;BME280;2397;53.576;9.746;2022-09-12T13:49:16;101412.22;;;21.07;67.12
4767;BME280;2397;53.576;9.746;2022-09-12T13:51:44;101413.31;;;20.97;71.98
4767;BME280;2397;53.576;9.746;2022-09-12T13:54:17;101415.88;;;21.00;67.72
4767;BME280;2397;53.576;9.746;2022-09-12T13:56:49;101415.03;;;21.41;65.07
4767;BME280;2397;53.576;9.746;2022-09-12T13:59:16;101413.47;;;21.33;64.63
4767;BME280;2397;53.576;9.746;2022-09-12T14:01:44;101415.84;;;21.45;64.00
4767;BME280;2397;53.576;9.746;2022-09-12T14:04:31;101415.56;;;21.61;63.17
4767;BME280;2397;53.576;9.746;2022-09-12T14:07:18;101408.31;;;21.70;65.26
4767;BME280;2397;53.576;9.746;2022-09-12T14:09:55;101402.19;;;22.07;59.94
4767;BME280;2397;53.576;9.746;2022-09-12T14:12:30;101393.78;;;22.27;63.61
4767;BME280;2397;53.576;9.746;2022-09-12T14:14:57;101401.63;;;21.95;62.60
4767;BME280;2397;53.576;9.746;2022-09-12T14:17:30;101396.63;;;22.20;60.77
4767;BME280;2397;53.576;9.746;2022-09-12T14:20:00;101386.59;;;22.69;59.14
4767;BME280;2397;53.576;9.746;2022-09-12T14:22:29;101393.84;;;22.93;59.74
4767;BME280;2397;53.576;9.746;2022-09-12T14:24:56;101382.97;;;22.73;59.40
4767;BME280;2397;53.576;9.746;2022-09-12T14:27:26;101392.06;;;22.25;59.57
4767;BME280;2397;53.576;9.746;2022-09-12T14:30:17;101389.75;;;22.13;61.25
4767;BME280;2397;53.576;9.746;2022-09-12T14:39:06;101376.13;;;22.31;59.32
4767;BME280;2397;53.576;9.746;2022-09-12T14:41:40;101369.97;;;22.32;59.48
4767;BME280;2397;53.576;9.746;2022-09-12T14:44:15;101367.78;;;22.14;64.85
4767;BME280;2397;53.576;9.746;2022-09-12T14:46:43;101365.41;;;22.39;58.61
4767;BME280;2397;53.576;9.746;2022-09-12T14:49:16;101359.00;;;22.11;58.98
4767;BME280;2397;53.576;9.746;2022-09-12T14:54:34;101360.59;;;21.83;59.91
4767;BME280;2397;53.576;9.746;2022-09-12T14:57:30;101357.94;;;21.84;62.77
4767;BME280;2397;53.576;9.746;2022-09-12T15:00:16;101360.78;;;21.75;61.64
4767;BME280;2397;53.576;9.746;2022-09-12T15:02:47;101349.13;;;21.85;61.46
4767;BME280;2397;53.576;9.746;2022-09-12T15:05:16;101342.13;;;21.84;65.12
4767;BME280;2397;53.576;9.746;2022-09-12T15:10:35;101343.03;;;21.82;62.85